createdAt,value
2023-03-12T00:00:01.245Z,0.14
2023-03-12T00:02:28.816Z,0.31
2023-03-12T00:04:56.553Z,0.36
2023-03-12T00:07:24.331Z,0.34
2023-03-12T00:09:51.891Z,0.22
2023-03-12T00:12:19.604Z,0.24
2023-03-12T00:14:48.901Z,0.07
2023-03-12T00:17:16.555Z,-0.02
2023-03-12T00:19:45.270Z,-0.03
2023-03-12T00:22:12.825Z,-0.08
2023-03-12T00:24:40.597Z,-0.22
2023-03-12T00:27:08.506Z,-0.37
2023-03-12T00:29:36.933Z,-0.48
2023-03-12T00:32:06.416Z,-0.65
2023-03-12T00:34:34.121Z,-0.76
2023-03-12T00:37:01.732Z,-0.71
2023-03-12T00:39:29.312Z,-0.61
2023-03-12T00:41:57.260Z,-0.44
2023-03-12T00:44:25.652Z,-0.19
2023-03-12T00:46:53.810Z,0.04
2023-03-12T00:49:23.232Z,0.32
2023-03-12T00:51:50.818Z,0.57
2023-03-12T00:54:19.182Z,0.69
2023-03-12T00:56:47.434Z,0.62
2023-03-12T00:59:15.254Z,0.57
2023-03-12T01:01:43.031Z,0.61
2023-03-12T01:04:11.004Z,0.70
2023-03-12T01:06:40.318Z,0.81
2023-03-12T01:09:09.210Z,0.88
2023-03-12T01:11:37.077Z,0.93
2023-03-12T01:14:06.225Z,0.95
2023-03-12T01:16:34.126Z,1.03
2023-03-12T01:19:02.725Z,1.00
2023-03-12T01:21:30.998Z,0.94
2023-03-12T01:24:00.179Z,0.91
2023-03-12T01:26:28.391Z,0.95
2023-03-12T01:28:56.649Z,0.98
2023-03-12T01:31:26.312Z,1.06
2023-03-12T01:33:54.331Z,1.08
2023-03-12T01:36:22.966Z,1.04
2023-03-12T01:38:52.063Z,1.04
2023-03-12T01:41:21.777Z,0.96
2023-03-12T01:43:49.764Z,0.97
2023-03-12T01:46:28.706Z,1.08
2023-03-12T01:48:59.695Z,1.26
2023-03-12T01:51:28.882Z,1.30
2023-03-12T01:53:59.035Z,1.24
2023-03-12T01:56:31.288Z,1.17
2023-03-12T01:59:01.443Z,1.19
2023-03-12T02:01:30.417Z,1.22
2023-03-12T02:03:59.959Z,1.27
2023-03-12T02:06:33.828Z,1.17
2023-03-12T02:09:02.520Z,1.15
2023-03-12T02:11:32.870Z,1.12
2023-03-12T02:14:01.063Z,1.20
2023-03-12T02:16:28.986Z,1.38
2023-03-12T02:18:57.978Z,1.50
2023-03-12T02:21:26.824Z,1.55
2023-03-12T02:23:59.804Z,1.44
2023-03-12T02:26:31.927Z,1.47
2023-03-12T02:29:01.748Z,1.45
2023-03-12T02:31:32.757Z,1.37
2023-03-12T02:34:01.368Z,1.47
2023-03-12T02:36:29.250Z,1.55
2023-03-12T02:38:57.245Z,1.53
2023-03-12T02:41:27.370Z,1.60
2023-03-12T02:43:59.768Z,1.80
2023-03-12T02:46:27.980Z,1.61
2023-03-12T02:48:56.256Z,1.38
2023-03-12T02:51:23.825Z,1.32
2023-03-12T02:53:54.845Z,1.29
2023-03-12T02:56:23.886Z,1.12
2023-03-12T02:58:51.967Z,1.04
2023-03-12T03:01:22.343Z,1.16
2023-03-12T03:03:50.407Z,1.32
2023-03-12T03:06:18.521Z,1.49
2023-03-12T03:08:46.189Z,1.62
2023-03-12T03:11:14.206Z,1.48
2023-03-12T03:13:42.256Z,1.39
2023-03-12T03:16:12.265Z,1.45
2023-03-12T03:18:41.515Z,1.48
2023-03-12T03:21:09.854Z,1.50
2023-03-12T03:23:38.177Z,1.45
2023-03-12T03:26:07.041Z,1.58
2023-03-12T03:28:35.667Z,1.59
2023-03-12T03:31:03.707Z,1.61
2023-03-12T03:33:36.999Z,1.63
2023-03-12T03:36:07.976Z,1.71
2023-03-12T03:38:39.762Z,1.74
2023-03-12T03:41:07.648Z,1.73
2023-03-12T03:43:40.714Z,1.71
2023-03-12T03:46:09.819Z,1.72
2023-03-12T03:48:41.050Z,1.83
2023-03-12T03:51:12.052Z,1.90
2023-03-12T03:53:43.611Z,1.85
2023-03-12T03:56:13.643Z,1.94
2023-03-12T03:58:45.646Z,2.03
2023-03-12T04:01:15.261Z,2.13
2023-03-12T04:03:44.258Z,2.25
2023-03-12T04:06:14.446Z,2.30
2023-03-12T04:08:43.000Z,2.33
2023-03-12T04:11:16.916Z,2.38
2023-03-12T04:13:44.724Z,2.34
2023-03-12T04:16:14.382Z,2.38
2023-03-12T04:18:42.548Z,2.44
2023-03-12T04:21:11.320Z,2.54
2023-03-12T04:23:41.532Z,2.61
2023-03-12T04:26:11.287Z,2.72
2023-03-12T04:28:39.320Z,2.76
2023-03-12T04:31:08.890Z,2.82
2023-03-12T04:33:41.255Z,2.88
2023-03-12T04:36:12.684Z,3.01
2023-03-12T04:38:44.632Z,3.10
2023-03-12T04:41:15.988Z,3.35
2023-03-12T04:43:49.247Z,3.46
2023-03-12T04:46:18.806Z,3.37
2023-03-12T04:48:46.495Z,2.95
2023-03-12T04:51:15.534Z,2.84
2023-03-12T04:53:45.051Z,2.60
2023-03-12T04:56:14.319Z,2.34
2023-03-12T04:58:43.965Z,2.27
2023-03-12T05:01:20.375Z,1.98
2023-03-12T05:03:48.538Z,1.80
2023-03-12T05:06:16.454Z,2.05
2023-03-12T05:08:45.901Z,2.00
2023-03-12T05:11:13.726Z,2.13
2023-03-12T05:13:41.471Z,2.32
2023-03-12T05:16:09.675Z,2.39
2023-03-12T05:18:38.096Z,2.30
2023-03-12T05:21:07.482Z,2.48
2023-03-12T05:23:36.745Z,2.78
2023-03-12T05:26:06.331Z,2.93
2023-03-12T05:28:34.762Z,3.09
2023-03-12T05:31:10.447Z,3.31
2023-03-12T05:33:38.667Z,3.21
2023-03-12T05:36:07.378Z,3.38
2023-03-12T05:38:35.849Z,3.49
2023-03-12T05:41:04.215Z,3.63
2023-03-12T05:43:36.885Z,3.70
2023-03-12T05:46:05.916Z,3.82
2023-03-12T05:48:35.924Z,3.92
2023-03-12T05:51:04.880Z,3.96
2023-03-12T05:53:34.395Z,4.03
2023-03-12T05:56:04.383Z,4.05
2023-03-12T05:58:32.926Z,4.13
2023-03-12T06:01:02.773Z,4.20
2023-03-12T06:03:30.818Z,4.09
2023-03-12T06:05:59.093Z,4.00
2023-03-12T06:08:27.218Z,3.89
2023-03-12T06:10:55.555Z,3.70
2023-03-12T06:13:25.225Z,3.64
2023-03-12T06:15:53.150Z,3.56
2023-03-12T06:18:22.235Z,3.46
2023-03-12T06:20:50.108Z,3.49
2023-03-12T06:23:20.330Z,3.64
2023-03-12T06:25:49.474Z,3.84
2023-03-12T06:28:17.211Z,4.12
2023-03-12T06:30:45.744Z,4.32
2023-03-12T06:33:14.330Z,4.45
2023-03-12T06:35:44.682Z,4.59
2023-03-12T06:38:12.446Z,4.72
2023-03-12T06:40:42.237Z,4.77
2023-03-12T06:43:12.201Z,4.95
2023-03-12T06:45:41.047Z,5.14
2023-03-12T06:48:08.767Z,5.16
2023-03-12T06:50:36.456Z,5.09
2023-03-12T06:53:05.949Z,5.04
2023-03-12T06:55:33.511Z,5.05
2023-03-12T06:58:02.432Z,5.14
2023-03-12T07:00:30.307Z,5.25
2023-03-12T07:02:58.775Z,5.31
2023-03-12T07:05:29.475Z,5.40
2023-03-12T07:07:57.563Z,5.53
2023-03-12T07:10:28.191Z,5.69
2023-03-12T07:12:56.697Z,5.93
2023-03-12T07:15:24.480Z,5.95
2023-03-12T07:17:52.503Z,5.96
2023-03-12T07:20:21.192Z,5.81
2023-03-12T07:22:50.428Z,5.74
2023-03-12T07:25:19.165Z,5.52
2023-03-12T07:27:48.441Z,5.42
2023-03-12T07:30:16.414Z,5.44
2023-03-12T07:32:44.088Z,5.41
2023-03-12T07:35:12.506Z,5.17
2023-03-12T07:37:40.438Z,5.00
2023-03-12T07:40:10.618Z,4.92
2023-03-12T07:42:38.228Z,4.91
2023-03-12T07:45:09.966Z,5.30
2023-03-12T07:47:37.809Z,5.76
2023-03-12T07:50:06.568Z,5.64
2023-03-12T07:52:36.475Z,5.25
2023-03-12T07:55:04.201Z,4.78
2023-03-12T07:57:32.753Z,5.15
2023-03-12T08:00:00.423Z,5.62
2023-03-12T08:02:29.976Z,5.96
2023-03-12T08:04:57.919Z,5.90
2023-03-12T08:07:25.657Z,5.55
2023-03-12T08:09:53.249Z,5.16
2023-03-12T08:12:21.007Z,5.11
2023-03-12T08:14:50.860Z,5.02
2023-03-12T08:17:18.689Z,5.00
2023-03-12T08:19:48.255Z,5.12
2023-03-12T08:22:18.594Z,5.08
2023-03-12T08:24:49.898Z,5.16
2023-03-12T08:27:18.083Z,5.07
2023-03-12T08:29:46.047Z,4.39
2023-03-12T08:32:15.940Z,3.47
2023-03-12T08:34:44.824Z,3.19
2023-03-12T08:37:15.007Z,3.03
2023-03-12T08:39:42.864Z,2.88
2023-03-12T08:42:11.724Z,2.71
2023-03-12T08:44:39.267Z,2.55
2023-03-12T08:47:06.908Z,2.79
2023-03-12T08:49:35.017Z,3.22
2023-03-12T08:52:02.885Z,3.07
2023-03-12T08:54:36.939Z,2.93
2023-03-12T08:57:04.726Z,3.08
2023-03-12T08:59:32.402Z,3.54
2023-03-12T09:02:01.572Z,3.83
2023-03-12T09:04:29.835Z,4.27
2023-03-12T09:06:58.822Z,4.61
2023-03-12T09:09:26.524Z,4.36
2023-03-12T09:11:56.073Z,4.23
2023-03-12T09:17:12.314Z,4.74
2023-03-12T09:19:40.713Z,4.64
2023-03-12T09:22:08.413Z,4.17
2023-03-12T09:24:36.225Z,4.40
2023-03-12T09:27:08.667Z,4.44
2023-03-12T09:29:46.507Z,4.46
2023-03-12T09:32:21.570Z,4.91
2023-03-12T09:34:49.430Z,5.01
2023-03-12T09:37:17.236Z,4.94
2023-03-12T09:39:45.004Z,5.08
2023-03-12T09:42:23.956Z,5.07
2023-03-12T09:44:52.621Z,5.27
2023-03-12T09:47:27.129Z,5.45
2023-03-12T09:49:57.496Z,5.79
2023-03-12T09:52:26.997Z,5.87
2023-03-12T09:54:57.629Z,6.51
2023-03-12T09:57:27.646Z,6.40
2023-03-12T09:59:56.001Z,6.32
2023-03-12T10:02:35.121Z,6.13
2023-03-12T10:05:07.111Z,6.43
2023-03-12T10:07:38.047Z,6.66
2023-03-12T10:10:20.019Z,6.27
2023-03-12T10:12:55.569Z,6.39
2023-03-12T10:15:30.623Z,6.89
2023-03-12T10:18:03.946Z,7.34
2023-03-12T10:20:51.501Z,6.84
2023-03-12T10:23:23.409Z,6.50
2023-03-12T10:25:54.111Z,6.61
2023-03-12T10:28:26.929Z,6.72
2023-03-12T10:30:58.307Z,6.22
2023-03-12T10:33:29.752Z,5.95
2023-03-12T10:35:57.972Z,5.76
2023-03-12T10:38:28.955Z,6.15
2023-03-12T10:40:59.108Z,6.69
2023-03-12T10:43:28.419Z,6.83
2023-03-12T10:46:02.860Z,6.88
2023-03-12T10:48:30.792Z,7.26
2023-03-12T10:51:03.644Z,7.09
2023-03-12T10:53:32.545Z,6.78
2023-03-12T10:56:01.608Z,7.09
2023-03-12T10:58:37.151Z,7.25
2023-03-12T11:01:06.473Z,7.68
2023-03-12T11:03:34.843Z,7.57
2023-03-12T11:06:04.843Z,7.55
2023-03-12T11:08:33.940Z,7.83
2023-03-12T11:11:03.476Z,7.78
2023-03-12T11:13:34.436Z,8.01
2023-03-12T11:16:03.677Z,7.68
2023-03-12T11:18:34.923Z,7.52
2023-03-12T11:21:15.320Z,7.80
2023-03-12T11:23:47.133Z,8.02
2023-03-12T11:26:18.001Z,8.11
2023-03-12T11:28:49.651Z,7.68
2023-03-12T11:31:23.485Z,7.71
2023-03-12T11:33:53.261Z,7.43
2023-03-12T11:36:30.470Z,7.41
2023-03-12T11:39:04.853Z,7.22
2023-03-12T11:41:42.608Z,7.68
2023-03-12T11:44:22.159Z,7.72
2023-03-12T11:46:57.921Z,7.75
2023-03-12T11:49:34.472Z,7.92
2023-03-12T11:52:07.038Z,8.12
2023-03-12T11:54:49.022Z,8.24
2023-03-12T11:57:22.537Z,8.64
2023-03-12T11:59:58.556Z,8.45
2023-03-12T12:02:44.652Z,8.53
2023-03-12T12:05:21.921Z,8.24
2023-03-12T12:07:55.289Z,8.23
2023-03-12T12:10:26.887Z,8.49
2023-03-12T12:13:01.043Z,8.97
2023-03-12T12:15:36.693Z,9.05
2023-03-12T12:18:14.469Z,9.74
2023-03-12T12:20:46.063Z,10.05
2023-03-12T12:23:18.296Z,10.07
2023-03-12T12:26:07.390Z,9.96
2023-03-12T12:28:45.943Z,9.69
2023-03-12T12:31:26.472Z,10.25
2023-03-12T12:34:03.176Z,10.72
2023-03-12T12:36:32.704Z,11.33
2023-03-12T12:39:06.219Z,11.64
2023-03-12T12:41:37.276Z,11.65
2023-03-12T12:44:06.367Z,11.82
2023-03-12T12:46:37.141Z,11.44
2023-03-12T12:49:10.273Z,11.10
2023-03-12T12:51:41.200Z,11.21
2023-03-12T12:54:12.854Z,10.88
2023-03-12T12:56:45.140Z,10.73
2023-03-12T12:59:23.290Z,10.70
2023-03-12T13:01:53.956Z,10.62
2023-03-12T13:04:26.709Z,10.78
2023-03-12T13:06:55.650Z,11.03
2023-03-12T13:09:24.783Z,11.68
2023-03-12T13:11:52.742Z,11.91
2023-03-12T13:14:22.585Z,12.01
2023-03-12T13:16:51.906Z,12.26
2023-03-12T13:19:35.725Z,11.98
2023-03-12T13:22:11.582Z,12.02
2023-03-12T13:24:44.848Z,12.17
2023-03-12T13:27:18.658Z,12.43
2023-03-12T13:29:46.641Z,12.99
2023-03-12T13:32:29.282Z,13.43
2023-03-12T13:34:57.760Z,13.94
2023-03-12T13:37:48.933Z,14.24
2023-03-12T13:40:37.054Z,14.33
2023-03-12T13:43:11.617Z,14.69
2023-03-12T13:45:42.269Z,14.93
2023-03-12T13:48:15.767Z,15.14
2023-03-12T13:50:51.822Z,15.48
2023-03-12T13:53:24.073Z,15.43
2023-03-12T13:56:00.796Z,15.78
2023-03-12T13:58:29.741Z,15.93
2023-03-12T14:00:58.839Z,17.17
2023-03-12T14:03:30.716Z,19.59
2023-03-12T14:05:59.750Z,20.57
2023-03-12T14:08:41.801Z,19.18
2023-03-12T14:11:20.320Z,17.24
2023-03-12T14:14:05.455Z,15.92
2023-03-12T14:16:36.659Z,15.40
2023-03-12T14:19:04.995Z,15.01
2023-03-12T14:21:35.980Z,15.00
2023-03-12T14:24:06.994Z,14.83
2023-03-12T14:26:37.103Z,14.34
2023-03-12T14:29:07.822Z,14.01
2023-03-12T14:31:37.127Z,13.59
2023-03-12T14:34:07.345Z,13.71
2023-03-12T14:36:39.127Z,13.51
2023-03-12T14:39:14.174Z,13.42
2023-03-12T14:41:45.934Z,13.48
2023-03-12T14:44:22.226Z,13.72
2023-03-12T14:46:57.198Z,13.89
2023-03-12T14:49:25.443Z,13.68
2023-03-12T14:51:56.800Z,13.06
2023-03-12T14:54:26.955Z,13.06
2023-03-12T14:56:54.607Z,13.37
2023-03-12T14:59:24.075Z,13.75
2023-03-12T15:01:52.502Z,13.70
2023-03-12T15:04:22.201Z,13.50
2023-03-12T15:06:52.129Z,13.58
2023-03-12T15:09:22.575Z,13.58
2023-03-12T15:11:54.838Z,13.73
2023-03-12T15:14:24.261Z,13.82
2023-03-12T15:16:52.571Z,13.56
2023-03-12T15:19:22.463Z,13.55
2023-03-12T15:21:51.128Z,13.80
2023-03-12T15:24:19.548Z,14.28
2023-03-12T15:26:47.348Z,14.69
2023-03-12T15:29:26.392Z,14.44
2023-03-12T15:31:55.740Z,14.24
2023-03-12T15:34:33.506Z,14.56
2023-03-12T15:37:02.018Z,14.86
2023-03-12T15:39:31.793Z,14.41
2023-03-12T15:42:01.994Z,14.10
2023-03-12T15:44:37.445Z,13.42
2023-03-12T15:47:08.406Z,13.53
2023-03-12T15:49:38.727Z,13.86
2023-03-12T15:52:08.150Z,13.13
2023-03-12T15:54:40.435Z,13.01
2023-03-12T15:57:20.893Z,13.25
2023-03-12T16:00:08.933Z,13.46
2023-03-12T16:02:37.435Z,13.64
2023-03-12T16:05:07.681Z,13.84
2023-03-12T16:07:36.040Z,13.96
2023-03-12T16:10:03.759Z,13.98
2023-03-12T16:12:31.796Z,14.09
2023-03-12T16:15:01.196Z,14.14
2023-03-12T16:17:29.317Z,13.90
2023-03-12T16:19:57.017Z,13.54
2023-03-12T16:22:25.130Z,13.29
2023-03-12T16:24:53.244Z,13.27
2023-03-12T16:27:31.932Z,13.16
2023-03-12T16:30:02.987Z,13.22
2023-03-12T16:32:31.087Z,13.01
2023-03-12T16:34:59.444Z,12.90
2023-03-12T16:37:27.204Z,12.95
2023-03-12T16:39:54.896Z,12.97
2023-03-12T16:42:22.687Z,12.93
2023-03-12T16:44:50.366Z,12.90
2023-03-12T16:47:21.858Z,12.90
2023-03-12T16:49:49.589Z,12.87
2023-03-12T16:52:19.132Z,12.77
2023-03-12T16:54:47.116Z,12.84
2023-03-12T16:57:21.117Z,12.84
2023-03-12T16:59:50.462Z,12.92
2023-03-12T17:02:21.431Z,12.89
2023-03-12T17:04:53.115Z,12.96
2023-03-12T17:07:23.598Z,12.90
2023-03-12T17:09:52.056Z,12.81
2023-03-12T17:12:24.212Z,12.64
2023-03-12T17:14:52.934Z,12.60
2023-03-12T17:17:23.525Z,12.56
2023-03-12T17:19:52.880Z,12.48
2023-03-12T17:22:21.427Z,12.43
2023-03-12T17:24:50.019Z,12.47
2023-03-12T17:27:18.601Z,12.50
2023-03-12T17:29:46.349Z,12.49
2023-03-12T17:32:15.089Z,12.46
2023-03-12T17:34:45.447Z,12.46
2023-03-12T17:37:13.230Z,12.37
2023-03-12T17:39:41.174Z,12.42
2023-03-12T17:42:09.024Z,12.46
2023-03-12T17:44:39.036Z,12.41
2023-03-12T17:47:06.847Z,12.41
2023-03-12T17:49:34.851Z,12.33
2023-03-12T17:52:04.351Z,12.37
2023-03-12T17:54:32.446Z,12.37
2023-03-12T17:57:00.039Z,12.44
2023-03-12T17:59:27.851Z,12.49
2023-03-12T18:01:55.563Z,12.53
2023-03-12T18:04:24.362Z,12.56
2023-03-12T18:06:52.026Z,12.48
2023-03-12T18:09:21.480Z,12.41
2023-03-12T18:11:49.302Z,12.41
2023-03-12T18:14:17.256Z,12.27
2023-03-12T18:16:49.927Z,12.27
2023-03-12T18:19:18.091Z,12.32
2023-03-12T18:21:47.811Z,12.32
2023-03-12T18:24:20.314Z,12.36
2023-03-12T18:26:52.701Z,12.33
2023-03-12T18:29:20.977Z,12.39
2023-03-12T18:31:49.896Z,12.40
2023-03-12T18:34:17.764Z,12.37
2023-03-12T18:36:45.498Z,12.37
2023-03-12T18:39:15.677Z,12.38
2023-03-12T18:41:45.998Z,12.34
2023-03-12T18:44:15.603Z,12.36
2023-03-12T18:46:43.811Z,12.46
2023-03-12T18:49:13.615Z,12.63
2023-03-12T18:51:43.588Z,12.72
2023-03-12T18:54:12.761Z,12.66
2023-03-12T18:56:40.995Z,12.40
2023-03-12T18:59:09.964Z,12.33
2023-03-12T19:01:39.382Z,12.30
2023-03-12T19:04:07.458Z,12.31
2023-03-12T19:06:48.120Z,12.42
2023-03-12T19:09:18.594Z,12.31
2023-03-12T19:11:47.617Z,12.20
2023-03-12T19:14:15.828Z,12.13
2023-03-12T19:16:45.279Z,12.04
2023-03-12T19:19:14.437Z,12.13
2023-03-12T19:21:42.612Z,12.10
2023-03-12T19:24:10.544Z,12.02
2023-03-12T19:26:38.259Z,11.97
2023-03-12T19:29:06.314Z,11.91
2023-03-12T19:31:36.245Z,11.93
2023-03-12T19:34:06.062Z,11.86
2023-03-12T19:36:33.919Z,11.88
2023-03-12T19:39:04.373Z,11.82
2023-03-12T19:41:34.512Z,11.82
2023-03-12T19:44:02.246Z,11.95
2023-03-12T19:46:31.198Z,11.90
2023-03-12T19:48:59.515Z,11.80
2023-03-12T19:51:28.701Z,11.72
2023-03-12T19:53:56.650Z,11.66
2023-03-12T19:56:29.085Z,11.71
2023-03-12T19:58:59.034Z,11.87
2023-03-12T20:01:26.906Z,11.71
2023-03-12T20:03:54.529Z,11.55
2023-03-12T20:06:23.304Z,11.56
2023-03-12T20:08:52.750Z,11.57
2023-03-12T20:11:20.553Z,11.55
2023-03-12T20:13:48.352Z,11.49
2023-03-12T20:16:17.166Z,11.34
2023-03-12T20:18:49.535Z,11.30
2023-03-12T20:21:17.368Z,11.21
2023-03-12T20:23:45.301Z,11.23
2023-03-12T20:26:15.084Z,11.26
2023-03-12T20:28:43.668Z,11.24
2023-03-12T20:31:11.918Z,11.26
2023-03-12T20:33:40.213Z,11.25
2023-03-12T20:36:09.164Z,11.24
2023-03-12T20:38:36.874Z,11.19
2023-03-12T20:41:05.408Z,11.09
2023-03-12T20:43:36.931Z,11.13
2023-03-12T20:46:05.027Z,11.07
2023-03-12T20:48:33.051Z,11.01
2023-03-12T20:51:00.761Z,10.99
2023-03-12T20:53:28.786Z,10.98
2023-03-12T20:55:56.628Z,10.92
2023-03-12T20:58:24.665Z,10.91
2023-03-12T21:00:53.892Z,10.98
2023-03-12T21:03:22.731Z,10.95
2023-03-12T21:05:57.410Z,10.94
2023-03-12T21:08:25.558Z,10.91
2023-03-12T21:10:55.699Z,10.91
2023-03-12T21:13:24.457Z,10.95
2023-03-12T21:15:52.264Z,10.97
2023-03-12T21:18:24.999Z,11.01
2023-03-12T21:20:53.062Z,10.93
2023-03-12T21:23:20.901Z,10.89
2023-03-12T21:25:48.604Z,10.90
2023-03-12T21:28:16.491Z,10.79
2023-03-12T21:30:44.246Z,10.74
2023-03-12T21:33:12.224Z,10.75
2023-03-12T21:35:45.150Z,10.70
2023-03-12T21:38:13.074Z,10.56
2023-03-12T21:40:41.628Z,10.52
2023-03-12T21:43:09.209Z,10.71
2023-03-12T21:45:37.147Z,10.70
2023-03-12T21:48:05.533Z,10.73
2023-03-12T21:50:35.182Z,10.77
2023-03-12T21:53:09.195Z,10.82
2023-03-12T21:55:54.973Z,10.80
2023-03-12T21:58:22.783Z,10.82
2023-03-12T22:00:50.890Z,10.93
2023-03-12T22:03:19.035Z,10.92
2023-03-12T22:05:51.728Z,10.90
2023-03-12T22:08:20.879Z,10.86
2023-03-12T22:10:49.187Z,10.87
2023-03-12T22:13:17.320Z,10.81
2023-03-12T22:15:47.723Z,10.87
2023-03-12T22:18:15.645Z,10.78
2023-03-12T22:20:43.239Z,10.74
2023-03-12T22:23:11.664Z,10.83
2023-03-12T22:25:40.852Z,10.90
2023-03-12T22:28:08.500Z,10.89
2023-03-12T22:30:36.520Z,10.91
2023-03-12T22:33:04.461Z,10.86
2023-03-12T22:35:33.757Z,10.86
2023-03-12T22:38:01.522Z,10.82
2023-03-12T22:40:29.308Z,10.84
2023-03-12T22:42:58.677Z,10.92
2023-03-12T22:45:26.299Z,10.81
2023-03-12T22:47:54.250Z,10.78
2023-03-12T22:50:23.596Z,10.70
2023-03-12T22:52:51.324Z,10.71
2023-03-12T22:55:18.898Z,10.68
2023-03-12T22:57:46.503Z,10.71
2023-03-12T23:00:17.422Z,10.81
2023-03-12T23:02:45.168Z,10.83
2023-03-12T23:05:13.287Z,10.87
2023-03-12T23:07:41.253Z,10.79
2023-03-12T23:10:10.698Z,10.74
2023-03-12T23:12:38.345Z,10.77
2023-03-12T23:15:06.787Z,10.79
2023-03-12T23:17:35.964Z,10.79
2023-03-12T23:20:05.135Z,10.79
2023-03-12T23:22:34.264Z,10.77
2023-03-12T23:25:02.068Z,10.79
2023-03-12T23:27:29.844Z,10.81
2023-03-12T23:29:57.901Z,10.82
2023-03-12T23:32:25.499Z,10.68
2023-03-12T23:34:54.848Z,10.74
2023-03-12T23:37:22.904Z,10.69
2023-03-12T23:39:54.911Z,10.51
2023-03-12T23:42:23.624Z,10.47
2023-03-12T23:44:51.455Z,10.49
2023-03-12T23:47:19.295Z,10.58
2023-03-12T23:49:47.155Z,10.58
2023-03-12T23:52:16.230Z,10.66
2023-03-12T23:54:43.776Z,10.69
2023-03-12T23:57:11.368Z,10.64
2023-03-12T23:59:38.849Z,10.75
